createdAt,value
2022-09-24T00:01:25.294Z,93.94
2022-09-24T00:03:53.740Z,95.00
2022-09-24T00:06:24.027Z,95.00
2022-09-24T00:08:53.179Z,94.17
2022-09-24T00:11:20.070Z,93.43
2022-09-24T00:13:47.657Z,94.31
2022-09-24T00:16:16.459Z,95.00
2022-09-24T00:18:46.264Z,95.00
2022-09-24T00:21:17.903Z,94.80
2022-09-24T00:23:49.726Z,95.00
2022-09-24T00:26:17.053Z,95.00
2022-09-24T00:28:45.915Z,95.00
2022-09-24T00:31:14.448Z,95.00
2022-09-24T00:33:41.232Z,95.00
2022-09-24T00:36:10.933Z,95.00
2022-09-24T00:38:40.298Z,93.37
2022-09-24T00:41:08.520Z,93.54
2022-09-24T00:43:37.948Z,94.00
2022-09-24T00:46:13.695Z,93.05
2022-09-24T00:48:41.547Z,93.80
2022-09-24T00:51:14.709Z,95.00
2022-09-24T00:53:43.780Z,95.00
2022-09-24T00:56:13.347Z,95.00
2022-09-24T00:58:40.202Z,95.00
2022-09-24T01:01:07.977Z,95.00
2022-09-24T01:03:39.008Z,95.00
2022-09-24T01:06:08.571Z,95.00
2022-09-24T01:08:36.721Z,95.00
2022-09-24T01:11:28.578Z,95.00
2022-09-24T01:14:23.126Z,95.00
2022-09-24T01:16:57.152Z,95.00
2022-09-24T01:19:47.675Z,94.25
2022-09-24T01:22:26.893Z,93.56
2022-09-24T01:25:07.547Z,95.00
2022-09-24T01:27:49.146Z,95.00
2022-09-24T01:30:19.671Z,95.00
2022-09-24T01:32:50.983Z,95.00
2022-09-24T01:35:25.637Z,95.00
2022-09-24T01:37:57.027Z,95.00
2022-09-24T01:40:27.283Z,95.00
2022-09-24T01:42:56.434Z,95.00
2022-09-24T01:45:26.541Z,95.00
2022-09-24T01:47:54.490Z,95.00
2022-09-24T01:50:24.542Z,95.00
2022-09-24T01:52:56.173Z,95.00
2022-09-24T01:55:27.227Z,95.00
2022-09-24T01:58:01.516Z,95.00
2022-09-24T02:00:30.194Z,95.00
2022-09-24T02:03:05.781Z,95.00
2022-09-24T02:05:36.633Z,95.00
2022-09-24T02:08:10.069Z,95.00
2022-09-24T02:10:43.832Z,95.00
2022-09-24T02:13:12.784Z,95.00
2022-09-24T02:15:45.337Z,95.00
2022-09-24T02:18:18.450Z,95.00
2022-09-24T02:20:47.446Z,95.00
2022-09-24T02:23:19.083Z,95.00
2022-09-24T02:25:51.537Z,95.00
2022-09-24T02:28:19.132Z,95.00
2022-09-24T02:30:52.709Z,95.00
2022-09-24T02:33:23.397Z,95.00
2022-09-24T02:35:51.543Z,95.00
2022-09-24T02:38:18.939Z,95.00
2022-09-24T02:40:46.012Z,95.00
2022-09-24T02:43:12.739Z,95.00
2022-09-24T02:45:40.915Z,95.00
2022-09-24T02:48:09.182Z,95.00
2022-09-24T02:50:35.940Z,95.00
2022-09-24T02:53:04.923Z,95.00
2022-09-24T02:55:31.658Z,95.00
2022-09-24T02:57:58.400Z,95.00
2022-09-24T03:00:26.568Z,95.00
2022-09-24T03:02:55.535Z,95.00
2022-09-24T03:05:23.692Z,95.00
2022-09-24T03:07:52.336Z,95.00
2022-09-24T03:10:19.240Z,95.00
2022-09-24T03:12:46.143Z,95.00
2022-09-24T03:15:12.950Z,95.00
2022-09-24T03:17:39.907Z,95.00
2022-09-24T03:20:07.596Z,95.00
2022-09-24T03:22:35.935Z,95.00
2022-09-24T03:25:02.710Z,95.00
2022-09-24T03:27:29.451Z,95.00
2022-09-24T03:29:57.471Z,95.00
2022-09-24T03:32:24.237Z,95.00
2022-09-24T03:34:54.532Z,95.00
2022-09-24T03:37:21.285Z,95.00
2022-09-24T03:39:49.711Z,95.00
2022-09-24T03:42:19.875Z,95.00
2022-09-24T03:44:47.638Z,95.00
2022-09-24T03:47:14.394Z,95.00
2022-09-24T03:49:42.337Z,95.00
2022-09-24T03:52:09.094Z,95.00
2022-09-24T03:54:35.915Z,95.00
2022-09-24T03:57:04.041Z,95.00
2022-09-24T03:59:31.045Z,95.00
2022-09-24T04:01:57.870Z,95.00
2022-09-24T04:04:24.726Z,95.00
2022-09-24T04:06:51.555Z,95.00
2022-09-24T04:09:18.303Z,95.00
2022-09-24T04:11:46.166Z,95.00
2022-09-24T04:14:14.291Z,95.00
2022-09-24T04:16:41.321Z,95.00
2022-09-24T04:19:08.134Z,95.00
2022-09-24T04:21:34.851Z,95.00
2022-09-24T04:24:02.088Z,95.00
2022-09-24T04:26:28.888Z,95.00
2022-09-24T04:28:55.903Z,95.00
2022-09-24T04:31:25.408Z,95.00
2022-09-24T04:33:53.518Z,95.00
2022-09-24T04:36:20.400Z,95.00
2022-09-24T04:38:49.726Z,95.00
2022-09-24T04:41:16.610Z,95.00
2022-09-24T04:43:45.030Z,95.00
2022-09-24T04:46:14.360Z,95.00
2022-09-24T04:48:42.672Z,95.00
2022-09-24T04:51:09.710Z,95.00
2022-09-24T04:53:37.682Z,95.00
2022-09-24T04:56:06.608Z,95.00
2022-09-24T04:58:39.916Z,95.00
2022-09-24T05:01:07.052Z,95.00
2022-09-24T05:03:33.983Z,95.00
2022-09-24T05:06:02.569Z,95.00
2022-09-24T05:08:29.532Z,95.00
2022-09-24T05:10:56.564Z,95.00
2022-09-24T05:13:23.425Z,95.00
2022-09-24T05:15:50.295Z,95.00
2022-09-24T05:18:17.182Z,95.00
2022-09-24T05:20:45.062Z,95.00
2022-09-24T05:23:14.512Z,95.00
2022-09-24T05:25:43.754Z,95.00
2022-09-24T05:28:10.917Z,95.00
2022-09-24T05:30:38.202Z,95.00
2022-09-24T05:33:05.392Z,95.00
2022-09-24T05:35:39.478Z,95.00
2022-09-24T05:38:06.271Z,95.00
2022-09-24T05:40:34.523Z,95.00
2022-09-24T05:43:01.784Z,95.00
2022-09-24T05:45:32.199Z,95.00
2022-09-24T05:47:59.100Z,95.00
2022-09-24T05:50:27.966Z,95.00
2022-09-24T05:52:54.735Z,95.00
2022-09-24T05:55:23.104Z,95.00
2022-09-24T05:57:51.195Z,95.00
2022-09-24T06:00:18.540Z,95.00
2022-09-24T06:02:45.676Z,95.00
2022-09-24T06:05:13.182Z,95.00
2022-09-24T06:07:40.007Z,95.00
2022-09-24T06:10:07.986Z,95.00
2022-09-24T06:12:35.828Z,95.00
2022-09-24T06:15:04.750Z,95.00
2022-09-24T06:17:31.563Z,95.00
2022-09-24T06:19:58.435Z,95.00
2022-09-24T06:22:28.784Z,95.00
2022-09-24T06:24:58.882Z,95.00
2022-09-24T06:27:25.962Z,95.00
2022-09-24T06:29:54.461Z,95.00
2022-09-24T06:32:23.674Z,95.00
2022-09-24T06:34:53.310Z,95.00
2022-09-24T06:37:22.490Z,95.00
2022-09-24T06:39:50.422Z,94.97
2022-09-24T06:42:17.304Z,94.35
2022-09-24T06:44:44.258Z,94.70
2022-09-24T06:47:12.094Z,95.00
2022-09-24T06:49:42.365Z,94.97
2022-09-24T06:52:10.410Z,95.00
2022-09-24T06:54:37.580Z,93.59
2022-09-24T06:57:06.634Z,91.11
2022-09-24T06:59:33.456Z,90.23
2022-09-24T07:02:00.473Z,88.39
2022-09-24T07:04:27.247Z,87.22
2022-09-24T07:06:56.585Z,81.18
2022-09-24T07:09:23.354Z,80.85
2022-09-24T07:11:50.150Z,78.69
2022-09-24T07:14:18.415Z,79.22
2022-09-24T07:16:47.513Z,75.72
2022-09-24T07:19:14.262Z,75.16
2022-09-24T07:21:41.491Z,77.59
2022-09-24T07:24:09.870Z,78.79
2022-09-24T07:26:36.586Z,70.33
2022-09-24T07:29:06.121Z,70.99
2022-09-24T07:31:33.531Z,70.67
2022-09-24T07:34:00.904Z,73.96
2022-09-24T07:36:28.045Z,79.22
2022-09-24T07:38:55.201Z,81.42
2022-09-24T07:41:23.689Z,82.92
2022-09-24T07:43:51.963Z,80.49
2022-09-24T07:46:19.121Z,78.03
2022-09-24T07:48:48.336Z,75.78
2022-09-24T07:51:15.449Z,73.41
2022-09-24T07:53:47.760Z,71.16
2022-09-24T07:56:15.142Z,68.63
2022-09-24T07:58:48.283Z,65.27
2022-09-24T08:01:15.614Z,63.67
2022-09-24T08:03:42.562Z,66.64
2022-09-24T08:06:09.439Z,67.04
2022-09-24T08:08:36.608Z,68.12
2022-09-24T08:11:04.871Z,65.63
2022-09-24T08:13:31.774Z,60.96
2022-09-24T08:16:01.791Z,65.06
2022-09-24T08:18:30.655Z,62.66
2022-09-24T08:20:57.648Z,61.30
2022-09-24T08:23:26.783Z,60.98
2022-09-24T08:25:54.704Z,61.84
2022-09-24T08:28:21.428Z,63.22
2022-09-24T08:30:49.740Z,63.36
2022-09-24T08:33:18.874Z,63.70
2022-09-24T08:35:48.300Z,65.29
2022-09-24T08:38:15.343Z,65.40
2022-09-24T08:40:46.143Z,62.37
2022-09-24T08:43:29.304Z,64.99
2022-09-24T08:46:01.360Z,62.32
2022-09-24T08:48:33.602Z,61.62
2022-09-24T08:51:06.425Z,59.81
2022-09-24T08:53:45.130Z,57.68
2022-09-24T08:56:12.705Z,58.57
2022-09-24T08:58:46.607Z,59.41
2022-09-24T09:01:23.339Z,58.15
2022-09-24T09:04:00.402Z,57.39
2022-09-24T09:06:49.832Z,56.06
2022-09-24T09:09:20.411Z,53.86
2022-09-24T09:11:50.170Z,53.96
2022-09-24T09:14:20.391Z,53.54
2022-09-24T09:16:52.701Z,53.15
2022-09-24T09:19:27.083Z,54.32
2022-09-24T09:21:57.201Z,52.28
2022-09-24T09:24:27.659Z,52.86
2022-09-24T09:26:56.595Z,54.19
2022-09-24T09:29:26.630Z,53.10
2022-09-24T09:32:03.626Z,51.52
2022-09-24T09:34:47.962Z,50.30
2022-09-24T09:37:26.946Z,49.25
2022-09-24T09:40:04.240Z,50.87
2022-09-24T09:42:33.241Z,50.42
2022-09-24T09:45:02.873Z,47.81
2022-09-24T09:47:41.545Z,49.89
2022-09-24T09:50:24.676Z,49.59
2022-09-24T09:52:54.483Z,48.35
2022-09-24T09:55:24.439Z,47.28
2022-09-24T09:57:52.629Z,48.55
2022-09-24T10:00:29.275Z,48.14
2022-09-24T10:02:59.557Z,50.53
2022-09-24T10:05:33.970Z,46.91
2022-09-24T10:08:01.077Z,47.21
2022-09-24T10:10:29.487Z,47.22
2022-09-24T10:13:07.809Z,47.45
2022-09-24T10:15:48.274Z,48.51
2022-09-24T10:18:16.305Z,47.06
2022-09-24T10:20:49.960Z,50.64
2022-09-24T10:23:21.317Z,48.38
2022-09-24T10:26:00.265Z,47.37
2022-09-24T10:28:28.803Z,48.25
2022-09-24T10:31:00.086Z,48.50
2022-09-24T10:33:30.196Z,46.61
2022-09-24T10:36:10.616Z,48.28
2022-09-24T10:38:37.357Z,48.61
2022-09-24T10:41:16.496Z,48.48
2022-09-24T10:43:51.426Z,50.57
2022-09-24T10:46:43.248Z,49.56
2022-09-24T10:49:21.978Z,47.94
2022-09-24T10:52:02.982Z,48.88
2022-09-24T10:54:43.673Z,49.61
2022-09-24T10:57:24.318Z,50.01
2022-09-24T11:00:01.193Z,49.72
2022-09-24T11:02:48.898Z,49.59
2022-09-24T11:05:21.615Z,46.84
2022-09-24T11:08:02.668Z,48.61
2022-09-24T11:10:50.687Z,50.47
2022-09-24T11:13:30.865Z,50.65
2022-09-24T11:16:19.847Z,52.51
2022-09-24T11:18:56.089Z,52.29
2022-09-24T11:21:42.344Z,54.27
2022-09-24T11:24:27.858Z,54.61
2022-09-24T11:27:12.289Z,52.13
2022-09-24T11:29:58.663Z,51.06
2022-09-24T11:32:33.601Z,49.96
2022-09-24T11:35:23.952Z,49.10
2022-09-24T11:37:59.867Z,49.04
2022-09-24T11:40:47.754Z,49.13
2022-09-24T11:43:44.465Z,47.80
2022-09-24T11:46:28.526Z,47.89
2022-09-24T11:49:20.738Z,46.74
2022-09-24T11:51:55.222Z,46.80
2022-09-24T11:54:27.225Z,45.28
2022-09-24T11:57:05.166Z,46.73
2022-09-24T11:59:39.437Z,46.06
2022-09-24T12:02:12.911Z,45.57
2022-09-24T12:04:50.831Z,45.93
2022-09-24T12:07:24.208Z,45.97
2022-09-24T12:09:58.646Z,46.10
2022-09-24T12:12:34.212Z,46.24
2022-09-24T12:15:06.927Z,46.28
2022-09-24T12:17:39.467Z,45.35
2022-09-24T12:20:14.591Z,48.37
2022-09-24T12:22:43.390Z,49.67
2022-09-24T12:25:12.563Z,49.69
2022-09-24T12:27:41.674Z,47.91
2022-09-24T12:30:29.802Z,49.72
2022-09-24T12:33:02.722Z,50.76
2022-09-24T12:35:51.946Z,51.51
2022-09-24T12:38:23.291Z,51.04
2022-09-24T12:41:18.810Z,51.33
2022-09-24T12:43:51.744Z,51.68
2022-09-24T12:46:21.737Z,51.97
2022-09-24T12:48:52.419Z,52.63
2022-09-24T12:51:20.400Z,51.01
2022-09-24T12:53:57.142Z,52.67
2022-09-24T12:56:27.725Z,51.68
2022-09-24T12:58:56.540Z,52.76
2022-09-24T13:01:29.165Z,51.20
2022-09-24T13:04:21.236Z,51.96
2022-09-24T13:06:48.362Z,54.20
2022-09-24T13:09:30.009Z,53.40
2022-09-24T13:12:03.332Z,51.17
2022-09-24T13:14:34.665Z,52.35
2022-09-24T13:17:06.637Z,50.15
2022-09-24T13:19:40.769Z,50.84
2022-09-24T13:22:17.680Z,53.42
2022-09-24T13:24:47.656Z,52.07
2022-09-24T13:27:23.822Z,53.95
2022-09-24T13:30:02.966Z,52.35
2022-09-24T13:32:34.082Z,54.08
2022-09-24T13:35:04.472Z,53.84
2022-09-24T13:37:35.438Z,51.67
2022-09-24T13:40:07.564Z,53.65
2022-09-24T13:42:40.083Z,53.71
2022-09-24T13:45:15.526Z,52.65
2022-09-24T13:47:48.501Z,53.08
2022-09-24T13:50:18.189Z,55.32
2022-09-24T13:52:52.425Z,57.02
2022-09-24T13:55:21.969Z,58.18
2022-09-24T13:57:48.848Z,58.92
2022-09-24T14:00:20.927Z,54.94
2022-09-24T14:02:59.569Z,53.36
2022-09-24T14:05:29.201Z,56.00
2022-09-24T14:08:01.176Z,54.87
2022-09-24T14:10:28.188Z,54.69
2022-09-24T14:13:03.075Z,55.49
2022-09-24T14:15:33.359Z,54.78
2022-09-24T14:18:01.227Z,54.86
2022-09-24T14:20:31.330Z,55.56
2022-09-24T14:22:58.406Z,55.49
2022-09-24T14:25:30.099Z,56.88
2022-09-24T14:28:00.186Z,58.03
2022-09-24T14:30:29.520Z,57.37
2022-09-24T14:32:59.851Z,58.90
2022-09-24T14:35:33.857Z,57.30
2022-09-24T14:38:04.599Z,59.94
2022-09-24T14:40:42.350Z,62.39
2022-09-24T14:43:18.337Z,62.76
2022-09-24T14:45:46.194Z,65.69
2022-09-24T14:48:25.654Z,67.22
2022-09-24T14:50:56.865Z,66.85
2022-09-24T14:53:27.459Z,68.71
2022-09-24T14:55:54.570Z,60.61
2022-09-24T14:58:32.940Z,64.99
2022-09-24T15:01:07.108Z,66.60
2022-09-24T15:03:43.337Z,71.25
2022-09-24T15:06:23.459Z,69.01
2022-09-24T15:08:59.171Z,71.37
2022-09-24T15:11:27.979Z,66.93
2022-09-24T15:14:00.184Z,69.97
2022-09-24T15:16:31.428Z,69.95
2022-09-24T15:19:13.811Z,67.16
2022-09-24T15:21:42.431Z,68.75
2022-09-24T15:24:09.629Z,68.43
2022-09-24T15:26:39.290Z,71.39
2022-09-24T15:29:06.423Z,74.87
2022-09-24T15:31:36.133Z,72.33
2022-09-24T15:34:04.318Z,73.44
2022-09-24T15:36:31.430Z,76.86
2022-09-24T15:39:03.186Z,73.01
2022-09-24T15:41:30.033Z,76.23
2022-09-24T15:43:57.935Z,73.89
2022-09-24T15:46:26.502Z,70.91
2022-09-24T15:48:53.547Z,71.50
2022-09-24T15:51:23.173Z,76.76
2022-09-24T15:53:50.609Z,76.60
2022-09-24T15:56:17.666Z,73.76
2022-09-24T15:58:47.654Z,74.93
2022-09-24T16:01:17.803Z,74.40
2022-09-24T16:03:45.152Z,76.31
2022-09-24T16:06:13.693Z,76.38
2022-09-24T16:08:43.836Z,76.74
2022-09-24T16:11:10.857Z,77.12
2022-09-24T16:13:37.803Z,77.66
2022-09-24T16:16:07.231Z,74.98
2022-09-24T16:18:34.187Z,76.05
2022-09-24T16:21:07.062Z,77.19
2022-09-24T16:23:34.136Z,75.24
2022-09-24T16:26:05.983Z,76.67
2022-09-24T16:28:32.852Z,81.27
2022-09-24T16:31:04.612Z,85.42
2022-09-24T16:33:31.412Z,81.54
2022-09-24T16:36:05.412Z,79.18
2022-09-24T16:38:34.804Z,80.28
2022-09-24T16:41:03.124Z,81.68
2022-09-24T16:43:30.481Z,83.26
2022-09-24T16:46:04.269Z,83.18
2022-09-24T16:48:33.681Z,78.82
2022-09-24T16:51:05.196Z,77.06
2022-09-24T16:53:32.594Z,79.21
2022-09-24T16:56:09.838Z,82.03
2022-09-24T16:58:37.014Z,84.58
2022-09-24T17:01:05.505Z,86.02
2022-09-24T17:03:32.642Z,82.71
2022-09-24T17:05:59.663Z,82.46
2022-09-24T17:08:26.958Z,82.07
2022-09-24T17:10:58.172Z,78.23
2022-09-24T17:13:30.476Z,82.29
2022-09-24T17:16:01.506Z,80.98
2022-09-24T17:18:28.350Z,80.61
2022-09-24T17:21:01.520Z,80.70
2022-09-24T17:23:28.645Z,79.02
2022-09-24T17:26:03.887Z,84.85
2022-09-24T17:28:35.757Z,80.73
2022-09-24T17:31:03.240Z,85.02
2022-09-24T17:33:43.313Z,84.23
2022-09-24T17:36:12.361Z,84.22
2022-09-24T17:38:40.275Z,84.59
2022-09-24T17:41:08.938Z,83.89
2022-09-24T17:43:39.595Z,83.57
2022-09-24T17:46:13.555Z,84.22
2022-09-24T17:48:44.155Z,84.71
2022-09-24T17:51:13.219Z,86.35
2022-09-24T17:53:41.930Z,92.19
2022-09-24T17:56:12.935Z,85.77
2022-09-24T17:58:43.067Z,83.94
2022-09-24T18:01:12.429Z,88.20
2022-09-24T18:03:39.922Z,88.84
2022-09-24T18:06:09.412Z,87.49
2022-09-24T18:08:39.158Z,85.77
2022-09-24T18:11:08.962Z,83.41
2022-09-24T18:19:46.277Z,86.42
2022-09-24T18:22:13.082Z,88.38
2022-09-24T18:24:39.913Z,88.15
2022-09-24T18:27:08.911Z,87.42
2022-09-24T18:29:35.872Z,86.89
2022-09-24T18:32:02.934Z,88.17
2022-09-24T18:34:29.998Z,87.32
2022-09-24T18:36:58.396Z,86.30
2022-09-24T18:39:25.856Z,85.51
2022-09-24T18:41:53.014Z,86.03
2022-09-24T18:44:19.942Z,85.66
2022-09-24T18:46:46.784Z,85.35
2022-09-24T18:49:13.815Z,85.85
2022-09-24T18:51:40.578Z,86.85
2022-09-24T18:54:13.766Z,87.85
2022-09-24T18:56:42.018Z,88.14
2022-09-24T18:59:12.217Z,87.92
2022-09-24T19:01:40.504Z,89.22
2022-09-24T19:04:10.609Z,87.77
2022-09-24T19:06:41.781Z,89.32
2022-09-24T19:09:11.938Z,89.20
2022-09-24T19:11:38.880Z,87.99
2022-09-24T19:14:05.794Z,87.45
2022-09-24T19:16:33.252Z,88.18
2022-09-24T19:19:01.170Z,89.75
2022-09-24T19:21:30.879Z,89.42
2022-09-24T19:24:03.607Z,89.04
2022-09-24T19:26:35.257Z,89.39
2022-09-24T19:29:03.380Z,88.47
2022-09-24T19:31:32.275Z,89.39
2022-09-24T19:34:00.515Z,89.19
2022-09-24T19:36:27.428Z,89.81
2022-09-24T19:38:54.295Z,90.72
2022-09-24T19:41:24.283Z,90.00
2022-09-24T19:43:53.371Z,90.61
2022-09-24T19:46:22.880Z,91.46
2022-09-24T19:48:50.271Z,91.95
2022-09-24T19:51:19.420Z,92.31
2022-09-24T19:53:50.975Z,91.11
2022-09-24T19:56:18.733Z,93.31
2022-09-24T19:58:46.096Z,91.92
2022-09-24T20:01:17.371Z,92.62
2022-09-24T20:03:46.294Z,93.28
2022-09-24T20:06:14.508Z,92.01
2022-09-24T20:08:41.833Z,93.46
2022-09-24T20:11:11.709Z,93.32
2022-09-24T20:13:38.603Z,94.13
2022-09-24T20:16:06.632Z,93.49
2022-09-24T20:18:35.662Z,92.79
2022-09-24T20:21:05.417Z,92.20
2022-09-24T20:23:32.331Z,91.56
2022-09-24T20:25:59.108Z,89.28
2022-09-24T20:28:32.448Z,91.47
2022-09-24T20:31:00.400Z,91.30
2022-09-24T20:33:27.219Z,91.49
2022-09-24T20:36:01.275Z,93.71
2022-09-24T20:38:28.327Z,93.70
2022-09-24T20:40:57.920Z,92.77
2022-09-24T20:43:26.094Z,91.10
2022-09-24T20:45:52.978Z,93.65
2022-09-24T20:48:19.938Z,93.43
2022-09-24T20:50:46.729Z,91.31
2022-09-24T20:53:15.907Z,91.29
2022-09-24T20:55:42.699Z,90.54
2022-09-24T20:58:09.729Z,89.83
2022-09-24T21:00:40.579Z,90.10
2022-09-24T21:03:25.917Z,91.27
2022-09-24T21:05:59.522Z,90.44
2022-09-24T21:08:31.285Z,89.27
2022-09-24T21:10:59.877Z,87.54
2022-09-24T21:13:32.349Z,88.51
2022-09-24T21:15:59.839Z,88.73
2022-09-24T21:18:35.729Z,87.88
2022-09-24T21:21:07.603Z,89.25
2022-09-24T21:23:35.868Z,88.72
2022-09-24T21:26:11.363Z,88.77
2022-09-24T21:28:39.055Z,88.21
2022-09-24T21:31:06.453Z,88.90
2022-09-24T21:33:34.185Z,88.12
2022-09-24T21:36:01.364Z,89.04
2022-09-24T21:38:33.394Z,88.72
2022-09-24T21:41:01.488Z,88.60
2022-09-24T21:43:34.641Z,90.52
2022-09-24T21:46:04.341Z,86.96
2022-09-24T21:48:31.718Z,90.54
2022-09-24T21:51:02.877Z,89.38
2022-09-24T21:53:30.727Z,91.94
2022-09-24T21:55:57.518Z,90.61
2022-09-24T21:58:34.034Z,89.72
2022-09-24T22:01:04.654Z,91.76
2022-09-24T22:03:32.427Z,92.91
2022-09-24T22:06:02.520Z,92.82
2022-09-24T22:08:30.200Z,90.41
2022-09-24T22:11:01.386Z,89.03
2022-09-24T22:13:28.621Z,89.45
2022-09-24T22:15:56.818Z,88.94
2022-09-24T22:18:24.117Z,91.10
2022-09-24T22:20:50.958Z,91.19
2022-09-24T22:23:17.704Z,90.08
2022-09-24T22:25:45.417Z,90.75
2022-09-24T22:28:13.307Z,89.84
2022-09-24T22:30:42.668Z,88.48
2022-09-24T22:33:11.310Z,89.71
2022-09-24T22:35:45.230Z,91.01
2022-09-24T22:38:12.035Z,91.20
2022-09-24T22:40:38.998Z,92.17
2022-09-24T22:43:05.778Z,92.36
2022-09-24T22:45:34.750Z,91.94
2022-09-24T22:48:01.758Z,90.43
2022-09-24T22:50:32.113Z,92.38
2022-09-24T22:52:58.837Z,93.19
2022-09-24T22:55:25.750Z,91.48
2022-09-24T22:57:52.467Z,91.10
2022-09-24T23:00:22.436Z,92.47
2022-09-24T23:02:49.230Z,91.81
2022-09-24T23:05:16.332Z,94.85
2022-09-24T23:07:46.776Z,92.49
2022-09-24T23:10:14.702Z,93.01
2022-09-24T23:12:41.460Z,93.61
2022-09-24T23:15:10.512Z,92.59
2022-09-24T23:17:37.653Z,95.00
2022-09-24T23:20:06.019Z,95.00
2022-09-24T23:22:33.432Z,94.70
2022-09-24T23:25:01.903Z,93.30
2022-09-24T23:27:28.791Z,93.23
2022-09-24T23:29:55.595Z,92.99
2022-09-24T23:32:22.871Z,95.00
2022-09-24T23:34:49.656Z,95.00
2022-09-24T23:37:17.668Z,95.00
2022-09-24T23:39:44.426Z,92.37
2022-09-24T23:42:12.617Z,90.19
2022-09-24T23:44:40.426Z,90.98
2022-09-24T23:47:07.199Z,91.11
2022-09-24T23:49:33.943Z,91.39
2022-09-24T23:52:01.796Z,92.07
2022-09-24T23:54:28.970Z,92.66
2022-09-24T23:56:55.848Z,93.46
2022-09-24T23:59:24.230Z,95.00
